sensor_id;sensor_type;location;lat;lon;timestamp;temperature;humidity
15452;DHT22;7827;53.594;9.938;2023-03-14T00:02:15;11.40;99.90
15452;DHT22;7827;53.594;9.938;2023-03-14T00:04:43;11.40;99.90
15452;DHT22;7827;53.594;9.938;2023-03-14T00:07:13;11.40;99.90
15452;DHT22;7827;53.594;9.938;2023-03-14T00:09:42;11.40;99.90
15452;DHT22;7827;53.594;9.938;2023-03-14T00:12:10;11.40;99.90
15452;DHT22;7827;53.594;9.938;2023-03-14T00:14:41;11.40;99.90
15452;DHT22;7827;53.594;9.938;2023-03-14T00:17:10;11.30;99.90
15452;DHT22;7827;53.594;9.938;2023-03-14T00:19:40;11.30;99.90
15452;DHT22;7827;53.594;9.938;2023-03-14T00:22:08;11.30;99.90
15452;DHT22;7827;53.594;9.938;2023-03-14T00:24:38;11.30;99.90
15452;DHT22;7827;53.594;9.938;2023-03-14T00:27:07;11.20;99.90
15452;DHT22;7827;53.594;9.938;2023-03-14T00:29:35;11.40;99.90
15452;DHT22;7827;53.594;9.938;2023-03-14T00:32:04;11.40;99.90
15452;DHT22;7827;53.594;9.938;2023-03-14T00:34:33;11.50;9.00
15452;DHT22;7827;53.594;9.938;2023-03-14T00:37:01;11.50;1.00
15452;DHT22;7827;53.594;9.938;2023-03-14T00:39:29;11.50;1.00
15452;DHT22;7827;53.594;9.938;2023-03-14T00:41:59;11.40;1.00
15452;DHT22;7827;53.594;9.938;2023-03-14T00:44:28;11.40;1.00
15452;DHT22;7827;53.594;9.938;2023-03-14T00:46:57;11.40;1.00
15452;DHT22;7827;53.594;9.938;2023-03-14T00:49:25;11.40;1.00
15452;DHT22;7827;53.594;9.938;2023-03-14T00:51:54;11.40;1.00
15452;DHT22;7827;53.594;9.938;2023-03-14T00:54:23;11.40;1.00
15452;DHT22;7827;53.594;9.938;2023-03-14T00:56:51;11.40;1.00
15452;DHT22;7827;53.594;9.938;2023-03-14T00:59:21;11.50;1.00
15452;DHT22;7827;53.594;9.938;2023-03-14T01:02:03;11.50;1.00
15452;DHT22;7827;53.594;9.938;2023-03-14T01:04:32;11.50;1.00
15452;DHT22;7827;53.594;9.938;2023-03-14T01:07:01;11.50;1.00
15452;DHT22;7827;53.594;9.938;2023-03-14T01:09:31;11.50;1.00
15452;DHT22;7827;53.594;9.938;2023-03-14T01:11:59;11.50;1.00
15452;DHT22;7827;53.594;9.938;2023-03-14T01:14:29;11.40;1.00
15452;DHT22;7827;53.594;9.938;2023-03-14T01:16:57;11.50;1.00
15452;DHT22;7827;53.594;9.938;2023-03-14T01:19:27;11.50;1.00
15452;DHT22;7827;53.594;9.938;2023-03-14T01:21:58;11.50;1.00
15452;DHT22;7827;53.594;9.938;2023-03-14T01:24:27;11.60;1.00
15452;DHT22;7827;53.594;9.938;2023-03-14T01:26:55;11.60;1.00
15452;DHT22;7827;53.594;9.938;2023-03-14T01:29:25;11.60;1.00
15452;DHT22;7827;53.594;9.938;2023-03-14T01:31:55;11.60;1.00
15452;DHT22;7827;53.594;9.938;2023-03-14T01:34:23;11.60;1.00
15452;DHT22;7827;53.594;9.938;2023-03-14T01:36:52;11.70;1.00
15452;DHT22;7827;53.594;9.938;2023-03-14T01:39:21;11.60;11.30
15452;DHT22;7827;53.594;9.938;2023-03-14T01:41:49;11.70;52.70
15452;DHT22;7827;53.594;9.938;2023-03-14T01:44:17;11.60;99.90
15452;DHT22;7827;53.594;9.938;2023-03-14T01:46:46;11.60;99.90
15452;DHT22;7827;53.594;9.938;2023-03-14T01:49:24;11.60;99.90
15452;DHT22;7827;53.594;9.938;2023-03-14T01:52:09;11.60;99.90
15452;DHT22;7827;53.594;9.938;2023-03-14T01:54:41;11.50;1.00
15452;DHT22;7827;53.594;9.938;2023-03-14T01:57:14;11.40;1.00
15452;DHT22;7827;53.594;9.938;2023-03-14T01:59:50;11.40;1.00
15452;DHT22;7827;53.594;9.938;2023-03-14T02:02:23;11.40;1.00
15452;DHT22;7827;53.594;9.938;2023-03-14T02:04:56;11.40;5.80
15452;DHT22;7827;53.594;9.938;2023-03-14T02:07:34;11.40;8.90
15452;DHT22;7827;53.594;9.938;2023-03-14T02:10:14;11.40;6.20
15452;DHT22;7827;53.594;9.938;2023-03-14T02:12:46;11.40;1.00
15452;DHT22;7827;53.594;9.938;2023-03-14T02:15:26;11.40;1.00
15452;DHT22;7827;53.594;9.938;2023-03-14T02:18:12;11.40;1.00
15452;DHT22;7827;53.594;9.938;2023-03-14T02:20:52;11.40;1.00
15452;DHT22;7827;53.594;9.938;2023-03-14T02:23:31;11.30;1.00
15452;DHT22;7827;53.594;9.938;2023-03-14T02:26:13;11.30;1.00
15452;DHT22;7827;53.594;9.938;2023-03-14T02:28:46;11.20;1.00
15452;DHT22;7827;53.594;9.938;2023-03-14T02:31:15;11.20;1.00
15452;DHT22;7827;53.594;9.938;2023-03-14T02:33:44;11.10;5.90
15452;DHT22;7827;53.594;9.938;2023-03-14T02:36:14;11.10;1.00
15452;DHT22;7827;53.594;9.938;2023-03-14T02:38:47;11.10;1.00
15452;DHT22;7827;53.594;9.938;2023-03-14T02:41:21;11.10;1.00
15452;DHT22;7827;53.594;9.938;2023-03-14T02:44:00;11.20;1.00
15452;DHT22;7827;53.594;9.938;2023-03-14T02:46:30;11.20;1.00
15452;DHT22;7827;53.594;9.938;2023-03-14T02:49:02;11.20;1.00
15452;DHT22;7827;53.594;9.938;2023-03-14T02:51:33;11.20;1.00
15452;DHT22;7827;53.594;9.938;2023-03-14T02:54:02;11.20;32.70
15452;DHT22;7827;53.594;9.938;2023-03-14T02:56:31;11.20;1.00
15452;DHT22;7827;53.594;9.938;2023-03-14T02:59:04;11.20;1.00
15452;DHT22;7827;53.594;9.938;2023-03-14T03:01:51;11.20;13.80
15452;DHT22;7827;53.594;9.938;2023-03-14T03:04:20;11.20;11.90
15452;DHT22;7827;53.594;9.938;2023-03-14T03:06:48;11.20;1.80
15452;DHT22;7827;53.594;9.938;2023-03-14T03:09:17;11.30;48.90
15452;DHT22;7827;53.594;9.938;2023-03-14T03:11:45;11.30;9.50
15452;DHT22;7827;53.594;9.938;2023-03-14T03:14:20;11.30;40.00
15452;DHT22;7827;53.594;9.938;2023-03-14T03:16:49;11.30;9.20
15452;DHT22;7827;53.594;9.938;2023-03-14T03:19:18;11.40;1.00
15452;DHT22;7827;53.594;9.938;2023-03-14T03:21:47;11.40;1.00
15452;DHT22;7827;53.594;9.938;2023-03-14T03:24:15;11.40;1.00
15452;DHT22;7827;53.594;9.938;2023-03-14T03:26:44;11.30;18.70
15452;DHT22;7827;53.594;9.938;2023-03-14T03:29:12;11.40;1.00
15452;DHT22;7827;53.594;9.938;2023-03-14T03:31:42;11.40;1.00
15452;DHT22;7827;53.594;9.938;2023-03-14T03:34:13;11.50;1.00
15452;DHT22;7827;53.594;9.938;2023-03-14T03:36:42;11.50;1.00
15452;DHT22;7827;53.594;9.938;2023-03-14T03:39:11;11.50;1.00
15452;DHT22;7827;53.594;9.938;2023-03-14T03:41:40;11.60;19.80
15452;DHT22;7827;53.594;9.938;2023-03-14T03:44:10;11.60;1.00
15452;DHT22;7827;53.594;9.938;2023-03-14T03:46:39;11.50;99.90
15452;DHT22;7827;53.594;9.938;2023-03-14T03:49:09;11.50;99.90
15452;DHT22;7827;53.594;9.938;2023-03-14T03:51:39;11.50;99.90
15452;DHT22;7827;53.594;9.938;2023-03-14T03:54:08;11.50;99.90
15452;DHT22;7827;53.594;9.938;2023-03-14T03:56:38;11.60;99.90
15452;DHT22;7827;53.594;9.938;2023-03-14T03:59:06;11.50;99.90
15452;DHT22;7827;53.594;9.938;2023-03-14T04:01:35;11.50;99.90
15452;DHT22;7827;53.594;9.938;2023-03-14T04:04:05;11.50;99.90
15452;DHT22;7827;53.594;9.938;2023-03-14T04:06:33;11.50;99.90
15452;DHT22;7827;53.594;9.938;2023-03-14T04:09:02;11.40;99.90
15452;DHT22;7827;53.594;9.938;2023-03-14T04:11:44;11.40;99.90
15452;DHT22;7827;53.594;9.938;2023-03-14T04:14:21;11.40;99.90
15452;DHT22;7827;53.594;9.938;2023-03-14T04:17:00;11.40;99.90
15452;DHT22;7827;53.594;9.938;2023-03-14T04:19:31;11.40;99.90
15452;DHT22;7827;53.594;9.938;2023-03-14T04:21:59;11.40;99.90
15452;DHT22;7827;53.594;9.938;2023-03-14T04:24:33;11.40;99.90
15452;DHT22;7827;53.594;9.938;2023-03-14T04:27:02;11.40;99.90
15452;DHT22;7827;53.594;9.938;2023-03-14T04:29:32;11.40;99.90
15452;DHT22;7827;53.594;9.938;2023-03-14T04:32:00;11.40;99.90
15452;DHT22;7827;53.594;9.938;2023-03-14T04:34:30;11.40;99.90
15452;DHT22;7827;53.594;9.938;2023-03-14T04:36:59;11.40;99.90
15452;DHT22;7827;53.594;9.938;2023-03-14T04:39:34;11.30;99.90
15452;DHT22;7827;53.594;9.938;2023-03-14T04:42:09;11.40;99.90
15452;DHT22;7827;53.594;9.938;2023-03-14T04:44:38;11.30;99.90
15452;DHT22;7827;53.594;9.938;2023-03-14T04:47:07;11.40;99.90
15452;DHT22;7827;53.594;9.938;2023-03-14T04:49:38;11.40;99.90
15452;DHT22;7827;53.594;9.938;2023-03-14T04:52:09;11.50;99.90
15452;DHT22;7827;53.594;9.938;2023-03-14T04:54:38;11.50;99.90
15452;DHT22;7827;53.594;9.938;2023-03-14T04:57:06;11.50;99.90
15452;DHT22;7827;53.594;9.938;2023-03-14T04:59:37;11.50;99.90
15452;DHT22;7827;53.594;9.938;2023-03-14T05:02:37;11.30;99.90
15452;DHT22;7827;53.594;9.938;2023-03-14T05:05:29;11.00;99.90
15452;DHT22;7827;53.594;9.938;2023-03-14T05:08:33;10.80;99.90
15452;DHT22;7827;53.594;9.938;2023-03-14T05:11:11;10.60;99.90
15452;DHT22;7827;53.594;9.938;2023-03-14T05:13:53;10.60;99.90
15452;DHT22;7827;53.594;9.938;2023-03-14T05:16:50;10.30;99.90
15452;DHT22;7827;53.594;9.938;2023-03-14T05:19:35;10.10;99.90
15452;DHT22;7827;53.594;9.938;2023-03-14T05:22:21;10.00;99.90
15452;DHT22;7827;53.594;9.938;2023-03-14T05:24:59;9.90;99.90
15452;DHT22;7827;53.594;9.938;2023-03-14T05:27:50;9.90;99.90
15452;DHT22;7827;53.594;9.938;2023-03-14T05:30:40;9.90;99.90
15452;DHT22;7827;53.594;9.938;2023-03-14T05:33:42;9.90;99.90
15452;DHT22;7827;53.594;9.938;2023-03-14T05:36:33;9.90;99.90
15452;DHT22;7827;53.594;9.938;2023-03-14T05:39:17;9.80;99.90
15452;DHT22;7827;53.594;9.938;2023-03-14T05:41:55;9.90;99.90
15452;DHT22;7827;53.594;9.938;2023-03-14T05:44:44;9.90;99.90
15452;DHT22;7827;53.594;9.938;2023-03-14T05:47:40;9.80;99.90
15452;DHT22;7827;53.594;9.938;2023-03-14T05:50:34;9.90;99.90
15452;DHT22;7827;53.594;9.938;2023-03-14T05:53:35;9.80;99.90
15452;DHT22;7827;53.594;9.938;2023-03-14T05:56:23;9.90;99.90
15452;DHT22;7827;53.594;9.938;2023-03-14T05:59:18;9.90;99.90
15452;DHT22;7827;53.594;9.938;2023-03-14T06:02:04;9.90;99.90
15452;DHT22;7827;53.594;9.938;2023-03-14T06:04:43;9.90;99.90
15452;DHT22;7827;53.594;9.938;2023-03-14T06:07:12;9.90;99.90
15452;DHT22;7827;53.594;9.938;2023-03-14T06:09:41;9.90;99.90
15452;DHT22;7827;53.594;9.938;2023-03-14T06:12:11;10.00;99.90
15452;DHT22;7827;53.594;9.938;2023-03-14T06:14:42;10.00;99.90
15452;DHT22;7827;53.594;9.938;2023-03-14T06:17:12;10.00;99.90
15452;DHT22;7827;53.594;9.938;2023-03-14T06:19:49;10.00;99.90
15452;DHT22;7827;53.594;9.938;2023-03-14T06:22:17;10.00;99.90
15452;DHT22;7827;53.594;9.938;2023-03-14T06:24:46;10.00;99.90
15452;DHT22;7827;53.594;9.938;2023-03-14T06:27:18;10.00;99.90
15452;DHT22;7827;53.594;9.938;2023-03-14T06:29:47;10.00;99.90
15452;DHT22;7827;53.594;9.938;2023-03-14T06:32:15;10.00;99.90
15452;DHT22;7827;53.594;9.938;2023-03-14T06:34:45;10.00;99.90
15452;DHT22;7827;53.594;9.938;2023-03-14T06:37:13;10.00;99.90
15452;DHT22;7827;53.594;9.938;2023-03-14T06:39:44;10.00;99.90
15452;DHT22;7827;53.594;9.938;2023-03-14T06:42:23;10.00;99.90
15452;DHT22;7827;53.594;9.938;2023-03-14T06:44:53;10.10;99.90
15452;DHT22;7827;53.594;9.938;2023-03-14T06:47:24;10.10;99.90
15452;DHT22;7827;53.594;9.938;2023-03-14T06:49:52;10.10;99.90
15452;DHT22;7827;53.594;9.938;2023-03-14T06:52:21;10.00;99.90
15452;DHT22;7827;53.594;9.938;2023-03-14T06:54:50;10.00;99.90
15452;DHT22;7827;53.594;9.938;2023-03-14T06:57:21;10.10;99.90
15452;DHT22;7827;53.594;9.938;2023-03-14T06:59:51;10.10;99.90
15452;DHT22;7827;53.594;9.938;2023-03-14T07:02:19;10.10;99.90
15452;DHT22;7827;53.594;9.938;2023-03-14T07:05:08;10.10;99.90
15452;DHT22;7827;53.594;9.938;2023-03-14T07:07:37;10.10;99.90
15452;DHT22;7827;53.594;9.938;2023-03-14T07:10:06;10.10;99.90
15452;DHT22;7827;53.594;9.938;2023-03-14T07:12:36;10.10;98.40
15452;DHT22;7827;53.594;9.938;2023-03-14T07:15:07;10.20;73.30
15452;DHT22;7827;53.594;9.938;2023-03-14T07:17:44;10.10;9.70
15452;DHT22;7827;53.594;9.938;2023-03-14T07:20:15;10.20;1.00
15452;DHT22;7827;53.594;9.938;2023-03-14T07:22:43;10.30;1.00
15452;DHT22;7827;53.594;9.938;2023-03-14T07:25:12;10.30;1.00
15452;DHT22;7827;53.594;9.938;2023-03-14T07:27:43;10.30;1.00
15452;DHT22;7827;53.594;9.938;2023-03-14T07:30:13;10.20;1.00
15452;DHT22;7827;53.594;9.938;2023-03-14T07:32:42;10.20;1.00
15452;DHT22;7827;53.594;9.938;2023-03-14T07:35:12;10.30;1.00
15452;DHT22;7827;53.594;9.938;2023-03-14T07:37:41;10.30;1.00
15452;DHT22;7827;53.594;9.938;2023-03-14T07:40:12;10.30;1.00
15452;DHT22;7827;53.594;9.938;2023-03-14T07:42:42;10.30;1.00
15452;DHT22;7827;53.594;9.938;2023-03-14T07:45:18;10.40;1.00
15452;DHT22;7827;53.594;9.938;2023-03-14T07:47:46;10.40;1.00
15452;DHT22;7827;53.594;9.938;2023-03-14T07:50:15;10.30;1.00
15452;DHT22;7827;53.594;9.938;2023-03-14T07:52:44;10.20;1.00
15452;DHT22;7827;53.594;9.938;2023-03-14T07:55:12;10.10;1.00
15452;DHT22;7827;53.594;9.938;2023-03-14T07:57:41;10.10;1.00
15452;DHT22;7827;53.594;9.938;2023-03-14T08:00:10;10.10;1.00
15452;DHT22;7827;53.594;9.938;2023-03-14T08:02:43;10.10;1.00
15452;DHT22;7827;53.594;9.938;2023-03-14T08:05:12;10.10;1.00
15452;DHT22;7827;53.594;9.938;2023-03-14T08:07:40;10.10;1.00
15452;DHT22;7827;53.594;9.938;2023-03-14T08:10:09;10.20;1.00
15452;DHT22;7827;53.594;9.938;2023-03-14T08:12:40;10.30;1.00
15452;DHT22;7827;53.594;9.938;2023-03-14T08:15:09;10.30;1.00
15452;DHT22;7827;53.594;9.938;2023-03-14T08:17:38;10.40;1.00
15452;DHT22;7827;53.594;9.938;2023-03-14T08:20:09;10.50;1.00
15452;DHT22;7827;53.594;9.938;2023-03-14T08:22:39;10.50;1.00
15452;DHT22;7827;53.594;9.938;2023-03-14T08:25:08;10.60;1.00
15452;DHT22;7827;53.594;9.938;2023-03-14T08:27:37;10.60;1.00
15452;DHT22;7827;53.594;9.938;2023-03-14T08:30:07;10.70;1.00
15452;DHT22;7827;53.594;9.938;2023-03-14T08:32:37;10.70;1.00
15452;DHT22;7827;53.594;9.938;2023-03-14T08:35:08;10.80;1.00
15452;DHT22;7827;53.594;9.938;2023-03-14T08:37:37;10.80;1.00
15452;DHT22;7827;53.594;9.938;2023-03-14T08:40:07;10.90;1.00
15452;DHT22;7827;53.594;9.938;2023-03-14T08:42:37;10.90;1.00
15452;DHT22;7827;53.594;9.938;2023-03-14T08:45:08;10.80;1.00
15452;DHT22;7827;53.594;9.938;2023-03-14T08:47:38;10.90;1.00
15452;DHT22;7827;53.594;9.938;2023-03-14T08:50:10;10.90;1.00
15452;DHT22;7827;53.594;9.938;2023-03-14T08:52:42;10.90;1.00
15452;DHT22;7827;53.594;9.938;2023-03-14T08:55:11;10.90;1.00
15452;DHT22;7827;53.594;9.938;2023-03-14T08:57:39;10.90;1.00
15452;DHT22;7827;53.594;9.938;2023-03-14T09:00:09;10.80;1.00
15452;DHT22;7827;53.594;9.938;2023-03-14T09:02:42;10.80;1.00
15452;DHT22;7827;53.594;9.938;2023-03-14T09:05:13;10.80;1.00
15452;DHT22;7827;53.594;9.938;2023-03-14T09:07:42;10.90;1.00
15452;DHT22;7827;53.594;9.938;2023-03-14T09:10:10;10.90;1.00
15452;DHT22;7827;53.594;9.938;2023-03-14T09:12:39;11.00;1.00
15452;DHT22;7827;53.594;9.938;2023-03-14T09:15:08;11.10;1.00
15452;DHT22;7827;53.594;9.938;2023-03-14T09:17:37;11.10;1.00
15452;DHT22;7827;53.594;9.938;2023-03-14T09:20:07;11.00;1.00
15452;DHT22;7827;53.594;9.938;2023-03-14T09:22:37;10.90;1.00
15452;DHT22;7827;53.594;9.938;2023-03-14T09:25:07;11.00;1.00
15452;DHT22;7827;53.594;9.938;2023-03-14T09:27:36;11.10;1.00
15452;DHT22;7827;53.594;9.938;2023-03-14T09:30:06;11.10;1.00
15452;DHT22;7827;53.594;9.938;2023-03-14T09:32:35;11.00;1.00
15452;DHT22;7827;53.594;9.938;2023-03-14T09:35:03;10.90;1.00
15452;DHT22;7827;53.594;9.938;2023-03-14T09:37:32;10.90;1.00
15452;DHT22;7827;53.594;9.938;2023-03-14T09:40:02;10.90;1.00
15452;DHT22;7827;53.594;9.938;2023-03-14T09:42:37;10.90;1.00
15452;DHT22;7827;53.594;9.938;2023-03-14T09:45:11;10.90;1.00
15452;DHT22;7827;53.594;9.938;2023-03-14T09:47:45;10.90;1.00
15452;DHT22;7827;53.594;9.938;2023-03-14T09:50:26;10.90;1.00
15452;DHT22;7827;53.594;9.938;2023-03-14T09:53:03;10.30;1.00
15452;DHT22;7827;53.594;9.938;2023-03-14T09:55:39;9.50;1.00
15452;DHT22;7827;53.594;9.938;2023-03-14T09:58:12;8.90;1.00
15452;DHT22;7827;53.594;9.938;2023-03-14T10:00:42;8.60;5.50
15452;DHT22;7827;53.594;9.938;2023-03-14T10:03:31;8.30;59.00
15452;DHT22;7827;53.594;9.938;2023-03-14T10:06:02;8.30;99.90
15452;DHT22;7827;53.594;9.938;2023-03-14T10:08:40;8.10;99.90
15452;DHT22;7827;53.594;9.938;2023-03-14T10:11:14;7.90;85.10
15452;DHT22;7827;53.594;9.938;2023-03-14T10:14:02;7.70;96.60
15452;DHT22;7827;53.594;9.938;2023-03-14T10:16:37;7.60;99.90
15452;DHT22;7827;53.594;9.938;2023-03-14T10:19:12;7.50;99.90
15452;DHT22;7827;53.594;9.938;2023-03-14T10:21:43;7.40;99.90
15452;DHT22;7827;53.594;9.938;2023-03-14T10:24:20;7.40;99.90
15452;DHT22;7827;53.594;9.938;2023-03-14T10:26:55;7.20;99.90
15452;DHT22;7827;53.594;9.938;2023-03-14T10:29:29;7.00;99.90
15452;DHT22;7827;53.594;9.938;2023-03-14T10:32:00;6.80;98.40
15452;DHT22;7827;53.594;9.938;2023-03-14T10:34:32;6.60;99.90
15452;DHT22;7827;53.594;9.938;2023-03-14T10:37:07;6.50;93.90
15452;DHT22;7827;53.594;9.938;2023-03-14T10:39:47;6.40;86.10
15452;DHT22;7827;53.594;9.938;2023-03-14T10:42:23;6.20;58.90
15452;DHT22;7827;53.594;9.938;2023-03-14T10:44:58;6.00;23.00
15452;DHT22;7827;53.594;9.938;2023-03-14T10:47:29;5.80;1.00
15452;DHT22;7827;53.594;9.938;2023-03-14T10:50:23;5.70;15.60
15452;DHT22;7827;53.594;9.938;2023-03-14T10:52:55;5.70;22.00
15452;DHT22;7827;53.594;9.938;2023-03-14T10:55:39;5.60;30.50
15452;DHT22;7827;53.594;9.938;2023-03-14T10:58:24;5.50;10.90
15452;DHT22;7827;53.594;9.938;2023-03-14T11:01:04;5.30;1.00
15452;DHT22;7827;53.594;9.938;2023-03-14T11:03:49;5.30;18.50
15452;DHT22;7827;53.594;9.938;2023-03-14T11:06:25;5.20;1.00
15452;DHT22;7827;53.594;9.938;2023-03-14T11:09:04;5.10;1.00
15452;DHT22;7827;53.594;9.938;2023-03-14T11:11:39;5.10;1.00
15452;DHT22;7827;53.594;9.938;2023-03-14T11:14:23;5.20;1.00
15452;DHT22;7827;53.594;9.938;2023-03-14T11:17:00;5.20;1.00
15452;DHT22;7827;53.594;9.938;2023-03-14T11:19:42;5.10;1.00
15452;DHT22;7827;53.594;9.938;2023-03-14T11:22:30;5.00;1.00
15452;DHT22;7827;53.594;9.938;2023-03-14T11:25:13;5.00;1.00
15452;DHT22;7827;53.594;9.938;2023-03-14T11:27:57;4.90;1.00
15452;DHT22;7827;53.594;9.938;2023-03-14T11:30:39;4.90;1.00
15452;DHT22;7827;53.594;9.938;2023-03-14T11:33:15;4.90;1.00
15452;DHT22;7827;53.594;9.938;2023-03-14T11:35:48;4.90;1.00
15452;DHT22;7827;53.594;9.938;2023-03-14T11:38:30;4.90;1.00
15452;DHT22;7827;53.594;9.938;2023-03-14T11:41:02;5.00;1.00
15452;DHT22;7827;53.594;9.938;2023-03-14T11:43:34;5.10;1.00
15452;DHT22;7827;53.594;9.938;2023-03-14T11:46:13;5.00;1.00
15452;DHT22;7827;53.594;9.938;2023-03-14T11:48:56;5.10;1.00
15452;DHT22;7827;53.594;9.938;2023-03-14T11:51:31;5.20;99.90
15452;DHT22;7827;53.594;9.938;2023-03-14T11:54:08;5.20;99.90
15452;DHT22;7827;53.594;9.938;2023-03-14T11:56:46;5.40;1.00
15452;DHT22;7827;53.594;9.938;2023-03-14T11:59:23;5.40;99.90
15452;DHT22;7827;53.594;9.938;2023-03-14T12:01:58;5.40;1.00
15452;DHT22;7827;53.594;9.938;2023-03-14T12:04:49;5.40;1.00
15452;DHT22;7827;53.594;9.938;2023-03-14T12:07:29;5.30;57.90
15452;DHT22;7827;53.594;9.938;2023-03-14T12:10:06;5.30;1.00
15452;DHT22;7827;53.594;9.938;2023-03-14T12:12:35;5.30;1.00
15452;DHT22;7827;53.594;9.938;2023-03-14T12:15:17;5.50;58.10
15452;DHT22;7827;53.594;9.938;2023-03-14T12:17:53;5.60;1.00
15452;DHT22;7827;53.594;9.938;2023-03-14T12:20:24;5.50;1.00
15452;DHT22;7827;53.594;9.938;2023-03-14T12:22:54;5.60;1.00
15452;DHT22;7827;53.594;9.938;2023-03-14T12:25:26;5.60;1.00
15452;DHT22;7827;53.594;9.938;2023-03-14T12:34:29;5.60;1.00
15452;DHT22;7827;53.594;9.938;2023-03-14T12:37:05;5.70;1.00
15452;DHT22;7827;53.594;9.938;2023-03-14T12:39:47;5.80;94.90
15452;DHT22;7827;53.594;9.938;2023-03-14T12:42:38;5.90;1.00
15452;DHT22;7827;53.594;9.938;2023-03-14T12:45:31;5.90;1.00
15452;DHT22;7827;53.594;9.938;2023-03-14T12:48:09;5.90;1.00
15452;DHT22;7827;53.594;9.938;2023-03-14T12:50:45;5.90;1.00
15452;DHT22;7827;53.594;9.938;2023-03-14T12:59:50;5.90;1.00
15452;DHT22;7827;53.594;9.938;2023-03-14T13:02:25;5.90;1.00
15452;DHT22;7827;53.594;9.938;2023-03-14T13:05:04;5.80;1.00
15452;DHT22;7827;53.594;9.938;2023-03-14T13:08:13;5.80;1.00
15452;DHT22;7827;53.594;9.938;2023-03-14T13:10:45;5.70;99.90
15452;DHT22;7827;53.594;9.938;2023-03-14T13:13:20;5.70;99.90
15452;DHT22;7827;53.594;9.938;2023-03-14T13:15:54;5.80;38.50
15452;DHT22;7827;53.594;9.938;2023-03-14T13:18:29;5.90;80.20
15452;DHT22;7827;53.594;9.938;2023-03-14T13:21:03;6.10;1.00
15452;DHT22;7827;53.594;9.938;2023-03-14T13:23:39;6.20;1.00
15452;DHT22;7827;53.594;9.938;2023-03-14T13:26:13;6.30;1.00
15452;DHT22;7827;53.594;9.938;2023-03-14T13:28:42;6.30;1.00
15452;DHT22;7827;53.594;9.938;2023-03-14T13:31:20;6.30;99.90
15452;DHT22;7827;53.594;9.938;2023-03-14T13:34:01;6.20;1.00
15452;DHT22;7827;53.594;9.938;2023-03-14T13:36:35;6.20;1.00
15452;DHT22;7827;53.594;9.938;2023-03-14T13:39:09;6.00;99.90
15452;DHT22;7827;53.594;9.938;2023-03-14T13:41:40;6.00;1.00
15452;DHT22;7827;53.594;9.938;2023-03-14T13:44:15;6.10;99.90
15452;DHT22;7827;53.594;9.938;2023-03-14T13:46:46;6.10;99.90
15452;DHT22;7827;53.594;9.938;2023-03-14T13:49:21;6.20;99.90
15452;DHT22;7827;53.594;9.938;2023-03-14T13:51:51;6.20;21.90
15452;DHT22;7827;53.594;9.938;2023-03-14T13:54:22;6.20;99.90
15452;DHT22;7827;53.594;9.938;2023-03-14T13:56:59;6.20;1.00
15452;DHT22;7827;53.594;9.938;2023-03-14T13:59:29;6.30;1.00
15452;DHT22;7827;53.594;9.938;2023-03-14T14:02:01;6.30;1.00
15452;DHT22;7827;53.594;9.938;2023-03-14T14:04:35;6.10;1.00
15452;DHT22;7827;53.594;9.938;2023-03-14T14:07:08;6.20;1.00
15452;DHT22;7827;53.594;9.938;2023-03-14T14:09:42;6.00;1.00
15452;DHT22;7827;53.594;9.938;2023-03-14T14:12:15;5.90;99.90
15452;DHT22;7827;53.594;9.938;2023-03-14T14:14:51;6.00;1.00
15452;DHT22;7827;53.594;9.938;2023-03-14T14:17:27;6.00;99.90
15452;DHT22;7827;53.594;9.938;2023-03-14T14:20:00;6.20;1.00
15452;DHT22;7827;53.594;9.938;2023-03-14T14:22:32;6.20;99.90
15452;DHT22;7827;53.594;9.938;2023-03-14T14:25:03;6.20;1.00
15452;DHT22;7827;53.594;9.938;2023-03-14T14:27:36;6.20;1.00
15452;DHT22;7827;53.594;9.938;2023-03-14T14:30:24;6.10;1.00
15452;DHT22;7827;53.594;9.938;2023-03-14T14:33:11;6.10;1.00
15452;DHT22;7827;53.594;9.938;2023-03-14T14:35:51;6.10;99.90
15452;DHT22;7827;53.594;9.938;2023-03-14T14:38:22;6.10;1.00
15452;DHT22;7827;53.594;9.938;2023-03-14T14:40:54;6.10;1.00
15452;DHT22;7827;53.594;9.938;2023-03-14T14:43:28;6.10;99.90
15452;DHT22;7827;53.594;9.938;2023-03-14T14:46:00;6.00;99.90
15452;DHT22;7827;53.594;9.938;2023-03-14T14:48:37;6.10;99.90
15452;DHT22;7827;53.594;9.938;2023-03-14T14:51:07;6.30;99.90
15452;DHT22;7827;53.594;9.938;2023-03-14T14:53:39;6.40;1.00
15452;DHT22;7827;53.594;9.938;2023-03-14T14:56:17;6.40;1.00
15452;DHT22;7827;53.594;9.938;2023-03-14T14:58:49;6.30;99.90
15452;DHT22;7827;53.594;9.938;2023-03-14T15:01:20;6.20;1.00
15452;DHT22;7827;53.594;9.938;2023-03-14T15:03:52;6.20;1.00
15452;DHT22;7827;53.594;9.938;2023-03-14T15:06:23;6.20;99.90
15452;DHT22;7827;53.594;9.938;2023-03-14T15:08:54;6.20;1.00
15452;DHT22;7827;53.594;9.938;2023-03-14T15:11:25;6.20;99.90
15452;DHT22;7827;53.594;9.938;2023-03-14T15:13:54;6.30;1.00
15452;DHT22;7827;53.594;9.938;2023-03-14T15:16:27;6.30;1.00
15452;DHT22;7827;53.594;9.938;2023-03-14T15:18:59;6.40;1.00
15452;DHT22;7827;53.594;9.938;2023-03-14T15:21:49;6.20;99.90
15452;DHT22;7827;53.594;9.938;2023-03-14T15:24:18;6.20;30.00
15452;DHT22;7827;53.594;9.938;2023-03-14T15:26:48;6.10;1.00
15452;DHT22;7827;53.594;9.938;2023-03-14T15:29:16;6.10;1.00
15452;DHT22;7827;53.594;9.938;2023-03-14T15:31:45;6.00;99.90
15452;DHT22;7827;53.594;9.938;2023-03-14T15:34:13;6.00;1.00
15452;DHT22;7827;53.594;9.938;2023-03-14T15:36:43;5.90;1.00
15452;DHT22;7827;53.594;9.938;2023-03-14T15:39:11;5.90;1.00
15452;DHT22;7827;53.594;9.938;2023-03-14T15:41:40;5.80;1.00
15452;DHT22;7827;53.594;9.938;2023-03-14T15:44:09;5.80;1.00
15452;DHT22;7827;53.594;9.938;2023-03-14T15:46:38;5.80;1.00
15452;DHT22;7827;53.594;9.938;2023-03-14T15:49:07;5.70;99.90
15452;DHT22;7827;53.594;9.938;2023-03-14T15:51:36;5.70;99.90
15452;DHT22;7827;53.594;9.938;2023-03-14T15:54:04;5.70;1.00
15452;DHT22;7827;53.594;9.938;2023-03-14T15:56:32;5.70;1.00
15452;DHT22;7827;53.594;9.938;2023-03-14T15:59:01;5.60;1.00
15452;DHT22;7827;53.594;9.938;2023-03-14T16:01:31;5.70;99.90
15452;DHT22;7827;53.594;9.938;2023-03-14T16:04:00;5.70;1.00
15452;DHT22;7827;53.594;9.938;2023-03-14T16:06:29;5.70;99.90
15452;DHT22;7827;53.594;9.938;2023-03-14T16:08:58;5.70;1.00
15452;DHT22;7827;53.594;9.938;2023-03-14T16:11:26;5.70;99.90
15452;DHT22;7827;53.594;9.938;2023-03-14T16:13:55;5.70;1.00
15452;DHT22;7827;53.594;9.938;2023-03-14T16:16:23;5.70;97.30
15452;DHT22;7827;53.594;9.938;2023-03-14T16:18:53;5.60;68.00
15452;DHT22;7827;53.594;9.938;2023-03-14T16:21:21;5.60;99.90
15452;DHT22;7827;53.594;9.938;2023-03-14T16:23:50;5.60;1.00
15452;DHT22;7827;53.594;9.938;2023-03-14T16:26:19;5.60;99.90
15452;DHT22;7827;53.594;9.938;2023-03-14T16:28:48;5.60;99.90
15452;DHT22;7827;53.594;9.938;2023-03-14T16:31:20;5.50;99.90
15452;DHT22;7827;53.594;9.938;2023-03-14T16:33:51;5.40;1.00
15452;DHT22;7827;53.594;9.938;2023-03-14T16:36:20;5.40;99.90
15452;DHT22;7827;53.594;9.938;2023-03-14T16:38:49;5.30;1.00
15452;DHT22;7827;53.594;9.938;2023-03-14T16:41:18;5.20;1.00
15452;DHT22;7827;53.594;9.938;2023-03-14T16:43:48;5.20;99.90
15452;DHT22;7827;53.594;9.938;2023-03-14T16:46:19;5.20;99.90
15452;DHT22;7827;53.594;9.938;2023-03-14T16:48:52;5.20;36.10
15452;DHT22;7827;53.594;9.938;2023-03-14T16:51:22;5.20;99.90
15452;DHT22;7827;53.594;9.938;2023-03-14T16:53:51;5.20;1.00
15452;DHT22;7827;53.594;9.938;2023-03-14T16:56:19;5.20;99.90